sensor_id;sensor_type;location;lat;lon;timestamp;temperature;humidity
55004;DHT22;40900;52.710;6.438;2023-02-02T00:01:25;4.80;99.90
55004;DHT22;40900;52.710;6.438;2023-02-02T00:03:52;4.80;99.90
55004;DHT22;40900;52.710;6.438;2023-02-02T00:06:19;4.80;99.90
55004;DHT22;40900;52.710;6.438;2023-02-02T00:08:45;4.80;99.90
55004;DHT22;40900;52.710;6.438;2023-02-02T00:11:11;4.80;99.90
55004;DHT22;40900;52.710;6.438;2023-02-02T00:13:38;4.90;99.90
55004;DHT22;40900;52.710;6.438;2023-02-02T00:19:15;4.90;99.90
55004;DHT22;40900;52.710;6.438;2023-02-02T00:21:42;4.90;99.90
55004;DHT22;40900;52.710;6.438;2023-02-02T00:24:10;4.90;99.90
55004;DHT22;40900;52.710;6.438;2023-02-02T00:26:38;4.90;99.90
55004;DHT22;40900;52.710;6.438;2023-02-02T00:29:05;4.90;99.90
55004;DHT22;40900;52.710;6.438;2023-02-02T00:31:31;4.90;99.90
55004;DHT22;40900;52.710;6.438;2023-02-02T00:33:57;4.90;99.90
55004;DHT22;40900;52.710;6.438;2023-02-02T00:36:22;4.90;99.90
55004;DHT22;40900;52.710;6.438;2023-02-02T00:38:49;5.00;99.90
55004;DHT22;40900;52.710;6.438;2023-02-02T00:41:16;5.00;99.90
55004;DHT22;40900;52.710;6.438;2023-02-02T00:43:42;5.00;99.90
55004;DHT22;40900;52.710;6.438;2023-02-02T00:46:17;5.00;99.90
55004;DHT22;40900;52.710;6.438;2023-02-02T00:48:43;5.10;99.90
55004;DHT22;40900;52.710;6.438;2023-02-02T00:51:09;5.10;99.90
55004;DHT22;40900;52.710;6.438;2023-02-02T00:53:34;5.10;99.90
55004;DHT22;40900;52.710;6.438;2023-02-02T00:56:00;5.10;99.90
55004;DHT22;40900;52.710;6.438;2023-02-02T00:58:26;5.10;99.90
55004;DHT22;40900;52.710;6.438;2023-02-02T01:00:51;5.10;99.90
55004;DHT22;40900;52.710;6.438;2023-02-02T01:03:17;5.10;99.90
55004;DHT22;40900;52.710;6.438;2023-02-02T01:05:43;5.10;99.90
55004;DHT22;40900;52.710;6.438;2023-02-02T01:08:09;5.10;99.90
55004;DHT22;40900;52.710;6.438;2023-02-02T01:10:35;5.20;99.90
55004;DHT22;40900;52.710;6.438;2023-02-02T01:13:01;5.10;99.90
55004;DHT22;40900;52.710;6.438;2023-02-02T01:15:27;5.10;99.90
55004;DHT22;40900;52.710;6.438;2023-02-02T01:17:55;5.10;99.90
55004;DHT22;40900;52.710;6.438;2023-02-02T01:20:21;5.10;99.90
55004;DHT22;40900;52.710;6.438;2023-02-02T01:22:47;5.10;99.90
55004;DHT22;40900;52.710;6.438;2023-02-02T01:25:13;5.10;99.90
55004;DHT22;40900;52.710;6.438;2023-02-02T01:27:39;5.10;99.90
55004;DHT22;40900;52.710;6.438;2023-02-02T01:30:05;5.10;99.90
55004;DHT22;40900;52.710;6.438;2023-02-02T01:32:31;5.10;99.90
55004;DHT22;40900;52.710;6.438;2023-02-02T01:34:57;5.10;99.90
55004;DHT22;40900;52.710;6.438;2023-02-02T01:37:23;5.20;99.90
55004;DHT22;40900;52.710;6.438;2023-02-02T01:39:48;5.20;99.90
55004;DHT22;40900;52.710;6.438;2023-02-02T01:42:19;5.20;99.90
55004;DHT22;40900;52.710;6.438;2023-02-02T01:47:23;5.30;99.90
55004;DHT22;40900;52.710;6.438;2023-02-02T01:49:50;5.30;99.90
55004;DHT22;40900;52.710;6.438;2023-02-02T01:52:18;5.20;99.90
55004;DHT22;40900;52.710;6.438;2023-02-02T01:54:55;5.30;99.90
55004;DHT22;40900;52.710;6.438;2023-02-02T01:57:33;5.30;99.90
55004;DHT22;40900;52.710;6.438;2023-02-02T02:00:03;5.30;99.90
55004;DHT22;40900;52.710;6.438;2023-02-02T02:02:30;5.30;99.90
55004;DHT22;40900;52.710;6.438;2023-02-02T02:04:56;5.30;99.90
55004;DHT22;40900;52.710;6.438;2023-02-02T02:07:23;5.30;99.90
55004;DHT22;40900;52.710;6.438;2023-02-02T02:09:49;5.30;99.90
55004;DHT22;40900;52.710;6.438;2023-02-02T02:12:15;5.30;99.90
55004;DHT22;40900;52.710;6.438;2023-02-02T02:14:47;5.40;99.90
55004;DHT22;40900;52.710;6.438;2023-02-02T02:23:41;5.50;99.90
55004;DHT22;40900;52.710;6.438;2023-02-02T02:42:58;5.60;99.90
55004;DHT22;40900;52.710;6.438;2023-02-02T02:45:26;5.60;99.90
55004;DHT22;40900;52.710;6.438;2023-02-02T02:47:54;5.60;99.90
55004;DHT22;40900;52.710;6.438;2023-02-02T02:50:20;5.70;99.90
55004;DHT22;40900;52.710;6.438;2023-02-02T02:52:48;5.70;99.90
55004;DHT22;40900;52.710;6.438;2023-02-02T02:55:14;5.70;99.90
55004;DHT22;40900;52.710;6.438;2023-02-02T03:00:29;5.70;99.90
55004;DHT22;40900;52.710;6.438;2023-02-02T03:05:49;5.80;99.90
55004;DHT22;40900;52.710;6.438;2023-02-02T03:08:47;5.80;99.90
55004;DHT22;40900;52.710;6.438;2023-02-02T03:11:14;5.80;99.90
55004;DHT22;40900;52.710;6.438;2023-02-02T03:13:41;5.80;99.90
55004;DHT22;40900;52.710;6.438;2023-02-02T03:16:08;5.80;99.90
55004;DHT22;40900;52.710;6.438;2023-02-02T03:18:34;5.80;99.90
55004;DHT22;40900;52.710;6.438;2023-02-02T03:21:00;5.80;99.90
55004;DHT22;40900;52.710;6.438;2023-02-02T03:23:26;5.80;99.90
55004;DHT22;40900;52.710;6.438;2023-02-02T03:25:53;5.80;99.90
55004;DHT22;40900;52.710;6.438;2023-02-02T03:28:21;5.80;99.90
55004;DHT22;40900;52.710;6.438;2023-02-02T03:30:47;5.80;99.90
55004;DHT22;40900;52.710;6.438;2023-02-02T03:33:14;5.80;99.90
55004;DHT22;40900;52.710;6.438;2023-02-02T03:35:41;5.80;99.90
55004;DHT22;40900;52.710;6.438;2023-02-02T03:38:07;5.80;99.90
55004;DHT22;40900;52.710;6.438;2023-02-02T03:40:33;5.80;99.90
55004;DHT22;40900;52.710;6.438;2023-02-02T03:42:59;5.80;99.90
55004;DHT22;40900;52.710;6.438;2023-02-02T03:45:28;5.80;99.90
55004;DHT22;40900;52.710;6.438;2023-02-02T03:47:54;5.80;99.90
55004;DHT22;40900;52.710;6.438;2023-02-02T03:50:20;5.80;99.90
55004;DHT22;40900;52.710;6.438;2023-02-02T03:52:45;5.80;99.90
55004;DHT22;40900;52.710;6.438;2023-02-02T03:55:11;5.80;99.90
55004;DHT22;40900;52.710;6.438;2023-02-02T03:57:37;5.80;99.90
55004;DHT22;40900;52.710;6.438;2023-02-02T04:00:03;5.80;99.90
55004;DHT22;40900;52.710;6.438;2023-02-02T04:02:29;5.80;99.90
55004;DHT22;40900;52.710;6.438;2023-02-02T04:04:55;5.80;99.90
55004;DHT22;40900;52.710;6.438;2023-02-02T04:07:20;5.80;99.90
55004;DHT22;40900;52.710;6.438;2023-02-02T04:09:46;5.80;99.90
55004;DHT22;40900;52.710;6.438;2023-02-02T04:12:12;5.80;99.90
55004;DHT22;40900;52.710;6.438;2023-02-02T04:14:37;5.80;99.90
55004;DHT22;40900;52.710;6.438;2023-02-02T04:17:03;5.80;99.90
55004;DHT22;40900;52.710;6.438;2023-02-02T04:19:28;5.80;99.90
55004;DHT22;40900;52.710;6.438;2023-02-02T04:21:54;5.80;99.90
55004;DHT22;40900;52.710;6.438;2023-02-02T04:24:20;5.80;99.90
55004;DHT22;40900;52.710;6.438;2023-02-02T04:26:46;5.90;99.90
55004;DHT22;40900;52.710;6.438;2023-02-02T04:29:12;5.90;99.90
55004;DHT22;40900;52.710;6.438;2023-02-02T04:31:37;5.90;99.90
55004;DHT22;40900;52.710;6.438;2023-02-02T04:34:03;5.90;99.90
55004;DHT22;40900;52.710;6.438;2023-02-02T04:36:29;5.90;99.90
55004;DHT22;40900;52.710;6.438;2023-02-02T04:38:55;5.90;99.90
55004;DHT22;40900;52.710;6.438;2023-02-02T04:41:22;5.90;99.90
55004;DHT22;40900;52.710;6.438;2023-02-02T04:43:48;5.90;99.90
55004;DHT22;40900;52.710;6.438;2023-02-02T04:46:14;5.90;99.90
55004;DHT22;40900;52.710;6.438;2023-02-02T04:48:41;5.90;99.90
55004;DHT22;40900;52.710;6.438;2023-02-02T04:51:09;6.00;99.90
55004;DHT22;40900;52.710;6.438;2023-02-02T04:53:35;5.90;99.90
55004;DHT22;40900;52.710;6.438;2023-02-02T04:56:11;5.90;99.90
55004;DHT22;40900;52.710;6.438;2023-02-02T04:58:37;5.90;99.90
55004;DHT22;40900;52.710;6.438;2023-02-02T05:01:11;5.90;99.90
55004;DHT22;40900;52.710;6.438;2023-02-02T05:03:37;5.90;99.90
55004;DHT22;40900;52.710;6.438;2023-02-02T05:06:04;5.90;99.90
55004;DHT22;40900;52.710;6.438;2023-02-02T05:08:30;5.90;99.90
55004;DHT22;40900;52.710;6.438;2023-02-02T05:10:56;5.90;99.90
55004;DHT22;40900;52.710;6.438;2023-02-02T05:13:22;5.90;99.90
55004;DHT22;40900;52.710;6.438;2023-02-02T05:15:48;5.90;99.90
55004;DHT22;40900;52.710;6.438;2023-02-02T05:18:14;5.90;99.90
55004;DHT22;40900;52.710;6.438;2023-02-02T05:20:39;5.90;99.90
55004;DHT22;40900;52.710;6.438;2023-02-02T05:23:05;5.80;99.90
55004;DHT22;40900;52.710;6.438;2023-02-02T05:25:31;5.90;99.90
55004;DHT22;40900;52.710;6.438;2023-02-02T05:27:56;5.80;99.90
55004;DHT22;40900;52.710;6.438;2023-02-02T05:30:23;5.90;99.90
55004;DHT22;40900;52.710;6.438;2023-02-02T05:32:48;5.90;99.90
55004;DHT22;40900;52.710;6.438;2023-02-02T05:35:14;5.90;99.90
55004;DHT22;40900;52.710;6.438;2023-02-02T05:37:41;5.80;99.90
55004;DHT22;40900;52.710;6.438;2023-02-02T05:40:10;5.80;99.90
55004;DHT22;40900;52.710;6.438;2023-02-02T05:42:35;5.80;99.90
55004;DHT22;40900;52.710;6.438;2023-02-02T05:45:01;5.80;99.90
55004;DHT22;40900;52.710;6.438;2023-02-02T05:47:27;5.80;99.90
55004;DHT22;40900;52.710;6.438;2023-02-02T05:49:53;5.80;99.90
55004;DHT22;40900;52.710;6.438;2023-02-02T05:52:21;5.80;99.90
55004;DHT22;40900;52.710;6.438;2023-02-02T05:54:47;5.80;99.90
55004;DHT22;40900;52.710;6.438;2023-02-02T05:57:13;5.70;99.90
55004;DHT22;40900;52.710;6.438;2023-02-02T05:59:39;5.80;99.90
55004;DHT22;40900;52.710;6.438;2023-02-02T06:02:04;5.80;99.90
55004;DHT22;40900;52.710;6.438;2023-02-02T06:04:30;5.80;99.90
55004;DHT22;40900;52.710;6.438;2023-02-02T06:06:56;5.80;99.90
55004;DHT22;40900;52.710;6.438;2023-02-02T06:09:22;5.70;99.90
55004;DHT22;40900;52.710;6.438;2023-02-02T06:11:48;5.80;99.90
55004;DHT22;40900;52.710;6.438;2023-02-02T06:14:14;5.80;99.90
55004;DHT22;40900;52.710;6.438;2023-02-02T06:16:40;5.80;99.90
55004;DHT22;40900;52.710;6.438;2023-02-02T06:19:06;5.80;99.90
55004;DHT22;40900;52.710;6.438;2023-02-02T06:21:31;5.80;99.90
55004;DHT22;40900;52.710;6.438;2023-02-02T06:23:57;5.70;99.90
55004;DHT22;40900;52.710;6.438;2023-02-02T06:26:24;5.70;99.90
55004;DHT22;40900;52.710;6.438;2023-02-02T06:28:52;5.80;99.90
55004;DHT22;40900;52.710;6.438;2023-02-02T06:31:19;5.80;99.90
55004;DHT22;40900;52.710;6.438;2023-02-02T06:33:52;5.70;99.90
55004;DHT22;40900;52.710;6.438;2023-02-02T06:36:18;5.80;99.90
55004;DHT22;40900;52.710;6.438;2023-02-02T06:38:51;5.80;99.90
55004;DHT22;40900;52.710;6.438;2023-02-02T06:41:17;5.70;99.90
55004;DHT22;40900;52.710;6.438;2023-02-02T06:43:45;5.80;99.90
55004;DHT22;40900;52.710;6.438;2023-02-02T06:46:11;5.70;99.90
55004;DHT22;40900;52.710;6.438;2023-02-02T06:48:37;5.70;99.90
55004;DHT22;40900;52.710;6.438;2023-02-02T06:51:02;5.70;99.90
55004;DHT22;40900;52.710;6.438;2023-02-02T06:53:30;5.70;99.90
55004;DHT22;40900;52.710;6.438;2023-02-02T06:56:00;5.60;99.90
55004;DHT22;40900;52.710;6.438;2023-02-02T06:58:27;5.60;99.90
55004;DHT22;40900;52.710;6.438;2023-02-02T07:00:53;5.60;99.90
55004;DHT22;40900;52.710;6.438;2023-02-02T07:03:20;5.60;99.90
55004;DHT22;40900;52.710;6.438;2023-02-02T07:05:49;5.60;99.90
55004;DHT22;40900;52.710;6.438;2023-02-02T07:08:15;5.60;99.90
55004;DHT22;40900;52.710;6.438;2023-02-02T07:10:41;5.60;99.90
55004;DHT22;40900;52.710;6.438;2023-02-02T07:13:08;5.50;99.90
55004;DHT22;40900;52.710;6.438;2023-02-02T07:15:36;5.50;99.90
55004;DHT22;40900;52.710;6.438;2023-02-02T07:18:02;5.50;99.90
55004;DHT22;40900;52.710;6.438;2023-02-02T07:20:28;5.50;99.90
55004;DHT22;40900;52.710;6.438;2023-02-02T07:22:54;5.50;99.90
55004;DHT22;40900;52.710;6.438;2023-02-02T07:25:19;5.50;99.90
55004;DHT22;40900;52.710;6.438;2023-02-02T07:27:45;5.50;99.90
55004;DHT22;40900;52.710;6.438;2023-02-02T07:30:12;5.50;99.90
55004;DHT22;40900;52.710;6.438;2023-02-02T07:32:38;5.50;99.90
55004;DHT22;40900;52.710;6.438;2023-02-02T07:35:04;5.50;99.90
55004;DHT22;40900;52.710;6.438;2023-02-02T07:37:30;5.50;99.90
55004;DHT22;40900;52.710;6.438;2023-02-02T07:39:56;5.50;99.90
55004;DHT22;40900;52.710;6.438;2023-02-02T07:42:22;5.60;99.90
55004;DHT22;40900;52.710;6.438;2023-02-02T07:44:47;5.50;99.90
55004;DHT22;40900;52.710;6.438;2023-02-02T07:47:13;5.50;99.90
55004;DHT22;40900;52.710;6.438;2023-02-02T07:49:39;5.50;99.90
55004;DHT22;40900;52.710;6.438;2023-02-02T07:52:04;5.60;99.90
55004;DHT22;40900;52.710;6.438;2023-02-02T07:54:30;5.50;99.90
55004;DHT22;40900;52.710;6.438;2023-02-02T07:56:56;5.50;99.90
55004;DHT22;40900;52.710;6.438;2023-02-02T07:59:22;5.60;99.90
55004;DHT22;40900;52.710;6.438;2023-02-02T08:01:48;5.60;99.90
55004;DHT22;40900;52.710;6.438;2023-02-02T08:04:14;5.60;99.90
55004;DHT22;40900;52.710;6.438;2023-02-02T08:06:40;5.50;99.90
55004;DHT22;40900;52.710;6.438;2023-02-02T08:09:07;5.60;99.90
55004;DHT22;40900;52.710;6.438;2023-02-02T08:11:35;5.50;99.90
55004;DHT22;40900;52.710;6.438;2023-02-02T08:14:01;5.60;99.90
55004;DHT22;40900;52.710;6.438;2023-02-02T08:16:29;5.50;99.90
55004;DHT22;40900;52.710;6.438;2023-02-02T08:18:56;5.50;99.90
55004;DHT22;40900;52.710;6.438;2023-02-02T08:21:22;5.50;99.90
55004;DHT22;40900;52.710;6.438;2023-02-02T08:23:48;5.50;99.90
55004;DHT22;40900;52.710;6.438;2023-02-02T08:26:17;5.60;99.90
55004;DHT22;40900;52.710;6.438;2023-02-02T08:28:46;5.60;99.90
55004;DHT22;40900;52.710;6.438;2023-02-02T08:31:18;5.50;99.90
55004;DHT22;40900;52.710;6.438;2023-02-02T08:33:46;5.60;99.90
55004;DHT22;40900;52.710;6.438;2023-02-02T08:36:17;5.70;99.90
55004;DHT22;40900;52.710;6.438;2023-02-02T08:38:44;5.60;99.90
55004;DHT22;40900;52.710;6.438;2023-02-02T08:41:12;5.60;99.90
55004;DHT22;40900;52.710;6.438;2023-02-02T08:43:39;5.70;99.90
55004;DHT22;40900;52.710;6.438;2023-02-02T08:46:06;5.70;99.90
55004;DHT22;40900;52.710;6.438;2023-02-02T08:48:33;5.70;99.90
55004;DHT22;40900;52.710;6.438;2023-02-02T08:51:00;5.70;99.90
55004;DHT22;40900;52.710;6.438;2023-02-02T08:53:26;5.70;99.90
55004;DHT22;40900;52.710;6.438;2023-02-02T08:56:03;5.70;99.90
55004;DHT22;40900;52.710;6.438;2023-02-02T08:58:30;5.70;99.90
55004;DHT22;40900;52.710;6.438;2023-02-02T09:01:13;5.70;99.90
55004;DHT22;40900;52.710;6.438;2023-02-02T09:03:40;5.80;99.90
55004;DHT22;40900;52.710;6.438;2023-02-02T09:06:09;5.80;99.90
55004;DHT22;40900;52.710;6.438;2023-02-02T09:08:35;5.80;99.90
55004;DHT22;40900;52.710;6.438;2023-02-02T09:11:13;5.80;99.90
55004;DHT22;40900;52.710;6.438;2023-02-02T09:13:41;5.80;99.90
55004;DHT22;40900;52.710;6.438;2023-02-02T09:16:09;5.80;99.90
55004;DHT22;40900;52.710;6.438;2023-02-02T09:18:35;5.80;99.90
55004;DHT22;40900;52.710;6.438;2023-02-02T09:21:02;5.80;99.90
55004;DHT22;40900;52.710;6.438;2023-02-02T09:23:33;5.80;99.90
55004;DHT22;40900;52.710;6.438;2023-02-02T09:28:38;5.90;99.90
55004;DHT22;40900;52.710;6.438;2023-02-02T09:31:05;5.90;99.90
55004;DHT22;40900;52.710;6.438;2023-02-02T09:33:31;5.90;99.90
55004;DHT22;40900;52.710;6.438;2023-02-02T09:36:03;5.90;99.90
55004;DHT22;40900;52.710;6.438;2023-02-02T09:38:29;5.90;99.90
55004;DHT22;40900;52.710;6.438;2023-02-02T09:40:55;5.90;99.90
55004;DHT22;40900;52.710;6.438;2023-02-02T09:43:28;6.00;99.90
55004;DHT22;40900;52.710;6.438;2023-02-02T09:46:09;6.00;99.90
55004;DHT22;40900;52.710;6.438;2023-02-02T09:48:59;5.90;99.90
55004;DHT22;40900;52.710;6.438;2023-02-02T09:51:29;6.00;99.90
55004;DHT22;40900;52.710;6.438;2023-02-02T09:54:11;6.00;99.90
55004;DHT22;40900;52.710;6.438;2023-02-02T09:56:42;6.00;99.90
55004;DHT22;40900;52.710;6.438;2023-02-02T09:59:26;6.00;99.90
55004;DHT22;40900;52.710;6.438;2023-02-02T10:01:57;6.00;99.90
55004;DHT22;40900;52.710;6.438;2023-02-02T10:04:39;6.00;99.90
55004;DHT22;40900;52.710;6.438;2023-02-02T10:07:13;6.00;99.90
55004;DHT22;40900;52.710;6.438;2023-02-02T10:21:00;6.10;99.90
55004;DHT22;40900;52.710;6.438;2023-02-02T10:23:32;6.10;99.90
55004;DHT22;40900;52.710;6.438;2023-02-02T10:29:08;6.10;99.90
55004;DHT22;40900;52.710;6.438;2023-02-02T10:34:43;6.20;99.90
55004;DHT22;40900;52.710;6.438;2023-02-02T10:40:02;6.20;99.90
55004;DHT22;40900;52.710;6.438;2023-02-02T10:45:32;6.30;99.90
55004;DHT22;40900;52.710;6.438;2023-02-02T10:47:59;6.30;99.90
55004;DHT22;40900;52.710;6.438;2023-02-02T10:50:25;6.20;99.90
55004;DHT22;40900;52.710;6.438;2023-02-02T10:52:55;6.30;99.90
55004;DHT22;40900;52.710;6.438;2023-02-02T11:03:26;6.30;99.90
55004;DHT22;40900;52.710;6.438;2023-02-02T11:05:52;6.30;99.90
55004;DHT22;40900;52.710;6.438;2023-02-02T11:08:42;6.40;99.90
55004;DHT22;40900;52.710;6.438;2023-02-02T11:13:41;6.30;99.90
55004;DHT22;40900;52.710;6.438;2023-02-02T11:18:44;6.40;99.90
55004;DHT22;40900;52.710;6.438;2023-02-02T11:24:00;6.50;99.90
55004;DHT22;40900;52.710;6.438;2023-02-02T11:26:53;6.40;99.90
55004;DHT22;40900;52.710;6.438;2023-02-02T11:31:55;6.50;99.90
55004;DHT22;40900;52.710;6.438;2023-02-02T11:34:25;6.50;99.90
55004;DHT22;40900;52.710;6.438;2023-02-02T11:39:24;6.50;99.90
55004;DHT22;40900;52.710;6.438;2023-02-02T11:42:01;6.50;99.90
55004;DHT22;40900;52.710;6.438;2023-02-02T11:44:29;6.50;99.90
55004;DHT22;40900;52.710;6.438;2023-02-02T11:46:57;6.50;99.90
55004;DHT22;40900;52.710;6.438;2023-02-02T11:49:23;6.50;99.90
55004;DHT22;40900;52.710;6.438;2023-02-02T11:51:58;6.50;99.90
55004;DHT22;40900;52.710;6.438;2023-02-02T11:54:31;6.50;99.90
55004;DHT22;40900;52.710;6.438;2023-02-02T11:57:06;6.50;99.90
55004;DHT22;40900;52.710;6.438;2023-02-02T12:02:25;6.50;99.90
55004;DHT22;40900;52.710;6.438;2023-02-02T12:04:54;6.50;99.90
55004;DHT22;40900;52.710;6.438;2023-02-02T12:07:27;6.50;99.90
55004;DHT22;40900;52.710;6.438;2023-02-02T12:09:58;6.50;99.90
55004;DHT22;40900;52.710;6.438;2023-02-02T12:21:07;6.60;99.90
55004;DHT22;40900;52.710;6.438;2023-02-02T12:26:33;6.60;99.90
55004;DHT22;40900;52.710;6.438;2023-02-02T12:32:07;6.70;99.90
55004;DHT22;40900;52.710;6.438;2023-02-02T12:43:10;6.80;99.90
55004;DHT22;40900;52.710;6.438;2023-02-02T12:45:48;6.90;99.90
55004;DHT22;40900;52.710;6.438;2023-02-02T12:48:39;6.90;99.90
55004;DHT22;40900;52.710;6.438;2023-02-02T12:59:30;7.00;99.90
55004;DHT22;40900;52.710;6.438;2023-02-02T13:02:14;7.00;99.90
55004;DHT22;40900;52.710;6.438;2023-02-02T13:10:29;7.00;99.90
55004;DHT22;40900;52.710;6.438;2023-02-02T13:13:02;7.00;99.90
55004;DHT22;40900;52.710;6.438;2023-02-02T13:15:35;7.00;99.90
55004;DHT22;40900;52.710;6.438;2023-02-02T13:18:07;7.00;99.90
55004;DHT22;40900;52.710;6.438;2023-02-02T13:20:41;7.00;99.90
55004;DHT22;40900;52.710;6.438;2023-02-02T13:23:33;7.00;99.90
55004;DHT22;40900;52.710;6.438;2023-02-02T13:26:05;7.00;99.90
55004;DHT22;40900;52.710;6.438;2023-02-02T13:31:13;7.00;99.90
55004;DHT22;40900;52.710;6.438;2023-02-02T13:33:40;6.90;99.90
55004;DHT22;40900;52.710;6.438;2023-02-02T13:36:17;7.00;99.90
55004;DHT22;40900;52.710;6.438;2023-02-02T13:38:57;7.00;99.90
55004;DHT22;40900;52.710;6.438;2023-02-02T13:41:24;7.00;99.90
55004;DHT22;40900;52.710;6.438;2023-02-02T13:44:19;7.00;99.90
55004;DHT22;40900;52.710;6.438;2023-02-02T13:47:22;7.00;99.90
55004;DHT22;40900;52.710;6.438;2023-02-02T13:49:55;7.00;99.90
55004;DHT22;40900;52.710;6.438;2023-02-02T13:52:35;7.00;99.90
55004;DHT22;40900;52.710;6.438;2023-02-02T14:01:05;7.00;99.90
55004;DHT22;40900;52.710;6.438;2023-02-02T14:03:54;7.00;99.90
55004;DHT22;40900;52.710;6.438;2023-02-02T14:06:22;7.00;99.90
55004;DHT22;40900;52.710;6.438;2023-02-02T14:11:38;7.00;99.90
55004;DHT22;40900;52.710;6.438;2023-02-02T14:14:18;7.10;99.90
55004;DHT22;40900;52.710;6.438;2023-02-02T14:19:54;7.00;99.90
55004;DHT22;40900;52.710;6.438;2023-02-02T14:22:46;7.00;99.90
55004;DHT22;40900;52.710;6.438;2023-02-02T14:27:58;7.10;99.90
55004;DHT22;40900;52.710;6.438;2023-02-02T14:30:31;7.00;99.90
55004;DHT22;40900;52.710;6.438;2023-02-02T14:33:38;7.10;99.90
55004;DHT22;40900;52.710;6.438;2023-02-02T14:36:10;7.00;99.90
55004;DHT22;40900;52.710;6.438;2023-02-02T14:38:53;7.10;99.90
55004;DHT22;40900;52.710;6.438;2023-02-02T14:41:53;7.10;99.90
55004;DHT22;40900;52.710;6.438;2023-02-02T14:44:32;7.10;99.90
55004;DHT22;40900;52.710;6.438;2023-02-02T14:47:02;7.10;99.90
55004;DHT22;40900;52.710;6.438;2023-02-02T14:49:33;7.00;99.90
55004;DHT22;40900;52.710;6.438;2023-02-02T14:52:00;7.10;99.90
55004;DHT22;40900;52.710;6.438;2023-02-02T14:54:37;7.10;99.90
55004;DHT22;40900;52.710;6.438;2023-02-02T14:59:47;7.10;99.90
55004;DHT22;40900;52.710;6.438;2023-02-02T15:04:49;7.10;99.90
55004;DHT22;40900;52.710;6.438;2023-02-02T15:09:47;7.10;99.90
55004;DHT22;40900;52.710;6.438;2023-02-02T15:12:15;7.00;99.90
55004;DHT22;40900;52.710;6.438;2023-02-02T15:20:32;7.10;99.90
55004;DHT22;40900;52.710;6.438;2023-02-02T15:23:22;7.00;99.90
55004;DHT22;40900;52.710;6.438;2023-02-02T15:33:48;7.00;99.90
55004;DHT22;40900;52.710;6.438;2023-02-02T15:36:21;7.00;99.90
55004;DHT22;40900;52.710;6.438;2023-02-02T15:38:51;7.00;99.90
55004;DHT22;40900;52.710;6.438;2023-02-02T15:41:22;7.00;99.90
55004;DHT22;40900;52.710;6.438;2023-02-02T15:43:48;7.00;99.90
55004;DHT22;40900;52.710;6.438;2023-02-02T15:46:20;6.90;99.90
55004;DHT22;40900;52.710;6.438;2023-02-02T15:51:52;6.90;99.90
55004;DHT22;40900;52.710;6.438;2023-02-02T15:54:30;7.00;99.90
55004;DHT22;40900;52.710;6.438;2023-02-02T15:57:00;6.90;99.90
55004;DHT22;40900;52.710;6.438;2023-02-02T15:59:38;6.90;99.90
55004;DHT22;40900;52.710;6.438;2023-02-02T16:04:41;6.90;99.90
55004;DHT22;40900;52.710;6.438;2023-02-02T16:07:19;7.00;99.90
55004;DHT22;40900;52.710;6.438;2023-02-02T16:09:46;7.00;99.90
55004;DHT22;40900;52.710;6.438;2023-02-02T16:12:17;6.90;99.90
55004;DHT22;40900;52.710;6.438;2023-02-02T16:14:50;6.90;99.90
55004;DHT22;40900;52.710;6.438;2023-02-02T16:17:27;6.90;99.90
55004;DHT22;40900;52.710;6.438;2023-02-02T16:20:02;7.00;99.90
55004;DHT22;40900;52.710;6.438;2023-02-02T16:22:31;6.90;99.90
55004;DHT22;40900;52.710;6.438;2023-02-02T16:25:01;7.00;99.90
55004;DHT22;40900;52.710;6.438;2023-02-02T16:27:29;7.00;99.90
55004;DHT22;40900;52.710;6.438;2023-02-02T16:30:05;6.90;99.90
55004;DHT22;40900;52.710;6.438;2023-02-02T16:32:34;7.00;99.90
55004;DHT22;40900;52.710;6.438;2023-02-02T16:35:03;6.90;99.90
55004;DHT22;40900;52.710;6.438;2023-02-02T16:37:33;6.90;99.90
55004;DHT22;40900;52.710;6.438;2023-02-02T16:43:20;6.90;99.90
55004;DHT22;40900;52.710;6.438;2023-02-02T16:46:03;6.90;99.90
55004;DHT22;40900;52.710;6.438;2023-02-02T16:48:36;7.00;99.90
55004;DHT22;40900;52.710;6.438;2023-02-02T16:53:40;7.00;99.90
55004;DHT22;40900;52.710;6.438;2023-02-02T16:56:06;7.00;99.90
55004;DHT22;40900;52.710;6.438;2023-02-02T16:58:38;7.00;99.90
55004;DHT22;40900;52.710;6.438;2023-02-02T17:01:10;7.00;99.90
55004;DHT22;40900;52.710;6.438;2023-02-02T17:03:38;7.00;99.90
55004;DHT22;40900;52.710;6.438;2023-02-02T17:06:06;7.10;99.90
55004;DHT22;40900;52.710;6.438;2023-02-02T17:08:37;7.10;99.90
55004;DHT22;40900;52.710;6.438;2023-02-02T17:13:48;7.00;99.90
55004;DHT22;40900;52.710;6.438;2023-02-02T17:16:18;7.10;99.90
55004;DHT22;40900;52.710;6.438;2023-02-02T17:18:45;7.10;99.90
55004;DHT22;40900;52.710;6.438;2023-02-02T17:21:18;7.10;99.90
55004;DHT22;40900;52.710;6.438;2023-02-02T17:23:45;7.00;99.90
55004;DHT22;40900;52.710;6.438;2023-02-02T17:26:11;7.10;99.90
55004;DHT22;40900;52.710;6.438;2023-02-02T17:28:39;7.10;99.90
55004;DHT22;40900;52.710;6.438;2023-02-02T17:31:08;7.10;99.90
55004;DHT22;40900;52.710;6.438;2023-02-02T17:33:35;7.10;99.90
55004;DHT22;40900;52.710;6.438;2023-02-02T17:36:02;7.10;99.90
55004;DHT22;40900;52.710;6.438;2023-02-02T17:38:28;7.10;99.90
55004;DHT22;40900;52.710;6.438;2023-02-02T17:40:55;7.10;99.90
55004;DHT22;40900;52.710;6.438;2023-02-02T17:43:22;7.10;99.90
55004;DHT22;40900;52.710;6.438;2023-02-02T17:45:48;7.10;99.90
55004;DHT22;40900;52.710;6.438;2023-02-02T17:48:14;7.10;99.90
55004;DHT22;40900;52.710;6.438;2023-02-02T17:50:41;7.10;99.90
55004;DHT22;40900;52.710;6.438;2023-02-02T17:53:12;7.10;99.90
55004;DHT22;40900;52.710;6.438;2023-02-02T17:55:40;7.00;99.90
55004;DHT22;40900;52.710;6.438;2023-02-02T17:58:07;7.00;99.90
55004;DHT22;40900;52.710;6.438;2023-02-02T18:00:33;7.00;99.90
55004;DHT22;40900;52.710;6.438;2023-02-02T18:03:15;7.00;99.90
55004;DHT22;40900;52.710;6.438;2023-02-02T18:05:43;7.00;99.90
55004;DHT22;40900;52.710;6.438;2023-02-02T18:08:10;7.00;99.90
55004;DHT22;40900;52.710;6.438;2023-02-02T18:10:36;6.90;99.90
55004;DHT22;40900;52.710;6.438;2023-02-02T18:13:02;7.00;99.90
55004;DHT22;40900;52.710;6.438;2023-02-02T18:15:28;7.00;99.90
55004;DHT22;40900;52.710;6.438;2023-02-02T18:17:55;7.00;99.90
55004;DHT22;40900;52.710;6.438;2023-02-02T18:20:21;7.00;99.90
55004;DHT22;40900;52.710;6.438;2023-02-02T18:22:47;7.00;99.90
55004;DHT22;40900;52.710;6.438;2023-02-02T18:25:15;7.00;99.90
55004;DHT22;40900;52.710;6.438;2023-02-02T18:27:41;7.10;99.90
55004;DHT22;40900;52.710;6.438;2023-02-02T18:30:07;7.10;99.90
55004;DHT22;40900;52.710;6.438;2023-02-02T18:32:37;7.10;99.90
55004;DHT22;40900;52.710;6.438;2023-02-02T18:35:03;7.10;99.90
55004;DHT22;40900;52.710;6.438;2023-02-02T18:37:29;7.10;99.90
55004;DHT22;40900;52.710;6.438;2023-02-02T18:39:55;7.20;99.90
55004;DHT22;40900;52.710;6.438;2023-02-02T18:42:20;7.10;99.90
55004;DHT22;40900;52.710;6.438;2023-02-02T18:44:46;7.20;99.90
55004;DHT22;40900;52.710;6.438;2023-02-02T18:47:12;7.20;99.90
55004;DHT22;40900;52.710;6.438;2023-02-02T18:49:37;7.20;99.90
55004;DHT22;40900;52.710;6.438;2023-02-02T18:52:03;7.20;99.90